sensor_id;sensor_type;location;lat;lon;timestamp;temperature;humidity
78438;SHT31;67736;51.978;5.656;2024-02-26T00:00:35;8.3;65.9
78438;SHT31;67736;51.978;5.656;2024-02-26T00:03:05;8.3;65.8
78438;SHT31;67736;51.978;5.656;2024-02-26T00:05:34;8.3;65.9
78438;SHT31;67736;51.978;5.656;2024-02-26T00:08:06;8.2;65.9
78438;SHT31;67736;51.978;5.656;2024-02-26T00:10:36;8.2;65.9
78438;SHT31;67736;51.978;5.656;2024-02-26T00:13:05;8.2;65.9
78438;SHT31;67736;51.978;5.656;2024-02-26T00:15:35;8.2;65.9
78438;SHT31;67736;51.978;5.656;2024-02-26T00:18:04;8.2;66.1
78438;SHT31;67736;51.978;5.656;2024-02-26T00:20:34;8.2;65.7
78438;SHT31;67736;51.978;5.656;2024-02-26T00:23:03;8.2;65.8
78438;SHT31;67736;51.978;5.656;2024-02-26T00:25:33;8.1;65.8
78438;SHT31;67736;51.978;5.656;2024-02-26T00:28:03;8.1;65.9
78438;SHT31;67736;51.978;5.656;2024-02-26T00:30:33;8.1;65.8
78438;SHT31;67736;51.978;5.656;2024-02-26T00:33:03;8.1;65.7
78438;SHT31;67736;51.978;5.656;2024-02-26T00:35:32;8.1;65.7
78438;SHT31;67736;51.978;5.656;2024-02-26T00:38:02;8.1;65.9
78438;SHT31;67736;51.978;5.656;2024-02-26T00:40:33;8.1;66.0
78438;SHT31;67736;51.978;5.656;2024-02-26T00:43:03;8.1;66.1
78438;SHT31;67736;51.978;5.656;2024-02-26T00:45:33;8.1;66.0
78438;SHT31;67736;51.978;5.656;2024-02-26T00:48:05;8.1;65.9
78438;SHT31;67736;51.978;5.656;2024-02-26T00:50:35;8.1;66.0
78438;SHT31;67736;51.978;5.656;2024-02-26T00:53:04;8.0;66.0
78438;SHT31;67736;51.978;5.656;2024-02-26T00:55:36;8.0;66.2
78438;SHT31;67736;51.978;5.656;2024-02-26T00:58:05;8.0;66.3
78438;SHT31;67736;51.978;5.656;2024-02-26T01:00:35;8.0;66.3
78438;SHT31;67736;51.978;5.656;2024-02-26T01:03:05;8.0;66.3
78438;SHT31;67736;51.978;5.656;2024-02-26T01:05:34;8.0;66.3
78438;SHT31;67736;51.978;5.656;2024-02-26T01:08:05;8.0;66.2
78438;SHT31;67736;51.978;5.656;2024-02-26T01:10:35;8.0;66.4
78438;SHT31;67736;51.978;5.656;2024-02-26T01:13:05;8.0;66.3
78438;SHT31;67736;51.978;5.656;2024-02-26T01:15:35;8.0;66.4
78438;SHT31;67736;51.978;5.656;2024-02-26T01:18:06;8.0;66.5
78438;SHT31;67736;51.978;5.656;2024-02-26T01:20:35;8.0;66.2
78438;SHT31;67736;51.978;5.656;2024-02-26T01:23:07;8.0;66.5
78438;SHT31;67736;51.978;5.656;2024-02-26T01:25:39;8.0;66.4
78438;SHT31;67736;51.978;5.656;2024-02-26T01:28:10;8.0;66.3
78438;SHT31;67736;51.978;5.656;2024-02-26T01:30:39;8.0;66.2
78438;SHT31;67736;51.978;5.656;2024-02-26T01:33:09;8.0;66.2
78438;SHT31;67736;51.978;5.656;2024-02-26T01:35:38;8.0;66.2
78438;SHT31;67736;51.978;5.656;2024-02-26T01:38:08;8.0;66.2
78438;SHT31;67736;51.978;5.656;2024-02-26T01:40:37;8.0;66.3
78438;SHT31;67736;51.978;5.656;2024-02-26T01:43:09;8.0;66.2
78438;SHT31;67736;51.978;5.656;2024-02-26T01:45:38;8.0;66.4
78438;SHT31;67736;51.978;5.656;2024-02-26T01:48:08;8.0;65.9
78438;SHT31;67736;51.978;5.656;2024-02-26T01:50:38;8.0;66.4
78438;SHT31;67736;51.978;5.656;2024-02-26T01:53:09;8.0;66.2
78438;SHT31;67736;51.978;5.656;2024-02-26T01:55:39;8.0;66.4
78438;SHT31;67736;51.978;5.656;2024-02-26T01:58:10;8.0;66.3
78438;SHT31;67736;51.978;5.656;2024-02-26T02:00:40;8.0;66.3
78438;SHT31;67736;51.978;5.656;2024-02-26T02:03:10;8.0;66.2
78438;SHT31;67736;51.978;5.656;2024-02-26T02:05:41;8.0;66.1
78438;SHT31;67736;51.978;5.656;2024-02-26T02:08:15;8.0;66.1
78438;SHT31;67736;51.978;5.656;2024-02-26T02:10:45;8.0;66.0
78438;SHT31;67736;51.978;5.656;2024-02-26T02:13:16;8.0;66.0
78438;SHT31;67736;51.978;5.656;2024-02-26T02:15:46;8.0;66.1
78438;SHT31;67736;51.978;5.656;2024-02-26T02:18:15;8.0;66.1
78438;SHT31;67736;51.978;5.656;2024-02-26T02:20:45;8.1;65.9
78438;SHT31;67736;51.978;5.656;2024-02-26T02:23:15;8.1;65.9
78438;SHT31;67736;51.978;5.656;2024-02-26T02:25:44;8.1;65.8
78438;SHT31;67736;51.978;5.656;2024-02-26T02:28:14;8.1;65.9
78438;SHT31;67736;51.978;5.656;2024-02-26T02:30:43;8.1;66.0
78438;SHT31;67736;51.978;5.656;2024-02-26T02:33:14;8.1;65.9
78438;SHT31;67736;51.978;5.656;2024-02-26T02:35:44;8.1;65.8
78438;SHT31;67736;51.978;5.656;2024-02-26T02:38:14;8.1;65.7
78438;SHT31;67736;51.978;5.656;2024-02-26T02:40:44;8.1;65.8
78438;SHT31;67736;51.978;5.656;2024-02-26T02:43:13;8.1;65.9
78438;SHT31;67736;51.978;5.656;2024-02-26T02:45:43;8.1;65.6
78438;SHT31;67736;51.978;5.656;2024-02-26T02:48:13;8.1;65.7
78438;SHT31;67736;51.978;5.656;2024-02-26T02:50:42;8.2;65.5
78438;SHT31;67736;51.978;5.656;2024-02-26T02:53:12;8.2;65.8
78438;SHT31;67736;51.978;5.656;2024-02-26T02:55:43;8.2;65.8
78438;SHT31;67736;51.978;5.656;2024-02-26T02:58:13;8.2;65.9
78438;SHT31;67736;51.978;5.656;2024-02-26T03:00:42;8.2;65.9
78438;SHT31;67736;51.978;5.656;2024-02-26T03:03:12;8.2;65.8
78438;SHT31;67736;51.978;5.656;2024-02-26T03:05:41;8.2;65.9
78438;SHT31;67736;51.978;5.656;2024-02-26T03:08:11;8.1;65.9
78438;SHT31;67736;51.978;5.656;2024-02-26T03:10:40;8.1;66.1
78438;SHT31;67736;51.978;5.656;2024-02-26T03:13:11;8.1;66.5
78438;SHT31;67736;51.978;5.656;2024-02-26T03:15:41;8.1;66.2
78438;SHT31;67736;51.978;5.656;2024-02-26T03:18:10;8.1;66.0
78438;SHT31;67736;51.978;5.656;2024-02-26T03:20:40;8.1;66.1
78438;SHT31;67736;51.978;5.656;2024-02-26T03:23:09;8.1;66.0
78438;SHT31;67736;51.978;5.656;2024-02-26T03:25:44;8.1;66.0
78438;SHT31;67736;51.978;5.656;2024-02-26T03:28:15;8.1;66.0
78438;SHT31;67736;51.978;5.656;2024-02-26T03:30:45;8.1;65.9
78438;SHT31;67736;51.978;5.656;2024-02-26T03:33:14;8.1;65.8
78438;SHT31;67736;51.978;5.656;2024-02-26T03:35:44;8.1;65.9
78438;SHT31;67736;51.978;5.656;2024-02-26T03:38:13;8.1;65.8
78438;SHT31;67736;51.978;5.656;2024-02-26T03:40:43;8.1;65.7
78438;SHT31;67736;51.978;5.656;2024-02-26T03:43:13;8.1;65.6
78438;SHT31;67736;51.978;5.656;2024-02-26T03:45:43;8.1;65.7
78438;SHT31;67736;51.978;5.656;2024-02-26T03:48:13;8.1;65.5
78438;SHT31;67736;51.978;5.656;2024-02-26T03:50:42;8.1;65.1
78438;SHT31;67736;51.978;5.656;2024-02-26T03:53:12;8.1;64.8
78438;SHT31;67736;51.978;5.656;2024-02-26T03:55:42;8.1;65.1
78438;SHT31;67736;51.978;5.656;2024-02-26T03:58:12;8.1;65.2
78438;SHT31;67736;51.978;5.656;2024-02-26T04:00:43;8.2;65.1
78438;SHT31;67736;51.978;5.656;2024-02-26T04:03:14;8.2;65.2
78438;SHT31;67736;51.978;5.656;2024-02-26T04:05:46;8.2;65.3
78438;SHT31;67736;51.978;5.656;2024-02-26T04:08:17;8.2;65.0
78438;SHT31;67736;51.978;5.656;2024-02-26T04:10:47;8.2;65.2
78438;SHT31;67736;51.978;5.656;2024-02-26T04:13:19;8.2;64.7
78438;SHT31;67736;51.978;5.656;2024-02-26T04:15:51;8.2;64.9
78438;SHT31;67736;51.978;5.656;2024-02-26T04:18:20;8.2;65.1
78438;SHT31;67736;51.978;5.656;2024-02-26T04:20:50;8.2;65.4
78438;SHT31;67736;51.978;5.656;2024-02-26T04:23:20;8.2;65.3
78438;SHT31;67736;51.978;5.656;2024-02-26T04:25:50;8.2;65.4
78438;SHT31;67736;51.978;5.656;2024-02-26T04:28:20;8.2;65.6
78438;SHT31;67736;51.978;5.656;2024-02-26T04:30:52;8.1;65.5
78438;SHT31;67736;51.978;5.656;2024-02-26T04:33:22;8.1;65.5
78438;SHT31;67736;51.978;5.656;2024-02-26T04:35:51;8.1;65.7
78438;SHT31;67736;51.978;5.656;2024-02-26T04:38:21;8.1;65.8
78438;SHT31;67736;51.978;5.656;2024-02-26T04:40:50;8.1;65.8
78438;SHT31;67736;51.978;5.656;2024-02-26T04:43:21;8.1;65.9
78438;SHT31;67736;51.978;5.656;2024-02-26T04:45:50;8.0;66.1
78438;SHT31;67736;51.978;5.656;2024-02-26T04:48:20;8.0;66.0
78438;SHT31;67736;51.978;5.656;2024-02-26T04:50:50;8.0;66.4
78438;SHT31;67736;51.978;5.656;2024-02-26T04:53:19;8.0;66.3
78438;SHT31;67736;51.978;5.656;2024-02-26T04:55:49;8.0;66.4
78438;SHT31;67736;51.978;5.656;2024-02-26T04:58:19;7.9;66.7
78438;SHT31;67736;51.978;5.656;2024-02-26T05:00:49;7.9;66.5
78438;SHT31;67736;51.978;5.656;2024-02-26T05:03:18;7.9;66.7
78438;SHT31;67736;51.978;5.656;2024-02-26T05:05:48;7.9;67.0
78438;SHT31;67736;51.978;5.656;2024-02-26T05:08:17;7.9;66.9
78438;SHT31;67736;51.978;5.656;2024-02-26T05:10:47;7.9;67.3
78438;SHT31;67736;51.978;5.656;2024-02-26T05:13:18;7.9;67.2
78438;SHT31;67736;51.978;5.656;2024-02-26T05:15:48;7.8;67.4
78438;SHT31;67736;51.978;5.656;2024-02-26T05:18:19;7.8;67.6
78438;SHT31;67736;51.978;5.656;2024-02-26T05:20:51;7.8;67.6
78438;SHT31;67736;51.978;5.656;2024-02-26T05:23:20;7.8;67.7
78438;SHT31;67736;51.978;5.656;2024-02-26T05:25:52;7.8;67.7
78438;SHT31;67736;51.978;5.656;2024-02-26T05:28:22;7.8;67.8
78438;SHT31;67736;51.978;5.656;2024-02-26T05:30:53;7.8;67.9
78438;SHT31;67736;51.978;5.656;2024-02-26T05:33:23;7.8;68.4
78438;SHT31;67736;51.978;5.656;2024-02-26T05:35:52;7.8;67.9
78438;SHT31;67736;51.978;5.656;2024-02-26T05:38:22;7.8;68.1
78438;SHT31;67736;51.978;5.656;2024-02-26T05:40:51;7.8;68.1
78438;SHT31;67736;51.978;5.656;2024-02-26T05:43:21;7.8;68.2
78438;SHT31;67736;51.978;5.656;2024-02-26T05:45:52;7.8;68.3
78438;SHT31;67736;51.978;5.656;2024-02-26T05:48:22;7.8;68.3
78438;SHT31;67736;51.978;5.656;2024-02-26T05:50:53;7.8;68.3
78438;SHT31;67736;51.978;5.656;2024-02-26T05:53:23;7.8;68.7
78438;SHT31;67736;51.978;5.656;2024-02-26T05:55:52;7.8;68.8
78438;SHT31;67736;51.978;5.656;2024-02-26T05:58:22;7.8;68.8
78438;SHT31;67736;51.978;5.656;2024-02-26T06:00:51;7.8;68.7
78438;SHT31;67736;51.978;5.656;2024-02-26T06:03:21;7.8;68.6
78438;SHT31;67736;51.978;5.656;2024-02-26T06:05:52;7.8;68.7
78438;SHT31;67736;51.978;5.656;2024-02-26T06:08:22;7.8;68.2
78438;SHT31;67736;51.978;5.656;2024-02-26T06:10:51;7.8;68.3
78438;SHT31;67736;51.978;5.656;2024-02-26T06:13:21;7.8;68.7
78438;SHT31;67736;51.978;5.656;2024-02-26T06:15:50;7.8;68.7
78438;SHT31;67736;51.978;5.656;2024-02-26T06:18:20;7.8;68.5
78438;SHT31;67736;51.978;5.656;2024-02-26T06:20:49;7.8;68.7
78438;SHT31;67736;51.978;5.656;2024-02-26T06:23:19;7.8;68.3
78438;SHT31;67736;51.978;5.656;2024-02-26T06:25:48;7.8;68.5
78438;SHT31;67736;51.978;5.656;2024-02-26T06:28:18;7.8;68.7
78438;SHT31;67736;51.978;5.656;2024-02-26T06:30:47;7.8;68.7
78438;SHT31;67736;51.978;5.656;2024-02-26T06:33:17;7.8;68.6
78438;SHT31;67736;51.978;5.656;2024-02-26T06:35:47;7.8;68.4
78438;SHT31;67736;51.978;5.656;2024-02-26T06:38:17;7.8;68.3
78438;SHT31;67736;51.978;5.656;2024-02-26T06:40:46;7.8;68.3
78438;SHT31;67736;51.978;5.656;2024-02-26T06:43:16;7.8;68.7
78438;SHT31;67736;51.978;5.656;2024-02-26T06:45:45;7.8;68.3
78438;SHT31;67736;51.978;5.656;2024-02-26T06:48:14;7.8;68.2
78438;SHT31;67736;51.978;5.656;2024-02-26T06:50:44;7.8;68.6
78438;SHT31;67736;51.978;5.656;2024-02-26T06:53:14;7.8;68.7
78438;SHT31;67736;51.978;5.656;2024-02-26T06:55:43;7.8;68.6
78438;SHT31;67736;51.978;5.656;2024-02-26T06:58:13;7.8;69.1
78438;SHT31;67736;51.978;5.656;2024-02-26T07:00:42;7.8;68.7
78438;SHT31;67736;51.978;5.656;2024-02-26T07:03:12;7.8;68.7
78438;SHT31;67736;51.978;5.656;2024-02-26T07:05:41;7.8;68.7
78438;SHT31;67736;51.978;5.656;2024-02-26T07:08:12;7.8;68.8
78438;SHT31;67736;51.978;5.656;2024-02-26T07:10:42;7.8;69.1
78438;SHT31;67736;51.978;5.656;2024-02-26T07:13:13;7.8;69.1
78438;SHT31;67736;51.978;5.656;2024-02-26T07:15:42;7.8;69.5
78438;SHT31;67736;51.978;5.656;2024-02-26T07:18:12;7.8;69.4
78438;SHT31;67736;51.978;5.656;2024-02-26T07:20:42;7.8;69.6
78438;SHT31;67736;51.978;5.656;2024-02-26T07:23:11;7.8;69.4
78438;SHT31;67736;51.978;5.656;2024-02-26T07:25:41;7.8;69.5
78438;SHT31;67736;51.978;5.656;2024-02-26T07:28:13;7.8;69.7
78438;SHT31;67736;51.978;5.656;2024-02-26T07:30:43;7.8;69.7
78438;SHT31;67736;51.978;5.656;2024-02-26T07:33:13;7.9;70.2
78438;SHT31;67736;51.978;5.656;2024-02-26T07:35:42;7.9;70.6
78438;SHT31;67736;51.978;5.656;2024-02-26T07:38:12;7.9;70.0
78438;SHT31;67736;51.978;5.656;2024-02-26T07:40:42;7.9;70.3
78438;SHT31;67736;51.978;5.656;2024-02-26T07:43:12;7.9;70.3
78438;SHT31;67736;51.978;5.656;2024-02-26T07:45:45;7.9;70.6
78438;SHT31;67736;51.978;5.656;2024-02-26T07:48:14;7.9;70.2
78438;SHT31;67736;51.978;5.656;2024-02-26T07:50:44;7.9;70.5
78438;SHT31;67736;51.978;5.656;2024-02-26T07:53:13;7.9;70.6
78438;SHT31;67736;51.978;5.656;2024-02-26T07:55:45;7.9;71.0
78438;SHT31;67736;51.978;5.656;2024-02-26T07:58:14;7.9;70.8
78438;SHT31;67736;51.978;5.656;2024-02-26T08:00:44;7.9;71.2
78438;SHT31;67736;51.978;5.656;2024-02-26T08:03:14;7.9;70.9
78438;SHT31;67736;51.978;5.656;2024-02-26T08:05:46;7.9;71.0
78438;SHT31;67736;51.978;5.656;2024-02-26T08:08:16;7.9;71.1
78438;SHT31;67736;51.978;5.656;2024-02-26T08:10:45;7.9;71.1
78438;SHT31;67736;51.978;5.656;2024-02-26T08:13:15;7.9;71.3
78438;SHT31;67736;51.978;5.656;2024-02-26T08:15:44;7.9;71.6
78438;SHT31;67736;51.978;5.656;2024-02-26T08:18:14;7.9;71.3
78438;SHT31;67736;51.978;5.656;2024-02-26T08:20:43;7.9;71.2
78438;SHT31;67736;51.978;5.656;2024-02-26T08:23:13;7.9;71.2
78438;SHT31;67736;51.978;5.656;2024-02-26T08:25:43;7.9;71.6
78438;SHT31;67736;51.978;5.656;2024-02-26T08:28:12;7.9;71.4
78438;SHT31;67736;51.978;5.656;2024-02-26T08:30:45;7.9;71.7
78438;SHT31;67736;51.978;5.656;2024-02-26T08:33:14;7.9;71.6
78438;SHT31;67736;51.978;5.656;2024-02-26T08:35:44;7.9;72.0
78438;SHT31;67736;51.978;5.656;2024-02-26T08:38:14;7.9;71.7
78438;SHT31;67736;51.978;5.656;2024-02-26T08:40:44;7.9;72.0
78438;SHT31;67736;51.978;5.656;2024-02-26T08:43:13;7.9;72.0
78438;SHT31;67736;51.978;5.656;2024-02-26T08:45:43;7.9;72.1
78438;SHT31;67736;51.978;5.656;2024-02-26T08:48:13;7.9;72.1
78438;SHT31;67736;51.978;5.656;2024-02-26T08:50:43;7.9;72.2
78438;SHT31;67736;51.978;5.656;2024-02-26T08:53:12;7.9;72.7
78438;SHT31;67736;51.978;5.656;2024-02-26T08:55:42;7.9;72.7
78438;SHT31;67736;51.978;5.656;2024-02-26T08:58:12;7.9;72.5
78438;SHT31;67736;51.978;5.656;2024-02-26T09:00:46;7.9;73.3
78438;SHT31;67736;51.978;5.656;2024-02-26T09:03:15;7.9;73.0
78438;SHT31;67736;51.978;5.656;2024-02-26T09:05:45;7.9;73.1
78438;SHT31;67736;51.978;5.656;2024-02-26T09:08:15;7.9;73.2
78438;SHT31;67736;51.978;5.656;2024-02-26T09:10:47;7.9;73.1
78438;SHT31;67736;51.978;5.656;2024-02-26T09:13:17;7.9;72.9
78438;SHT31;67736;51.978;5.656;2024-02-26T09:15:46;7.9;73.1
78438;SHT31;67736;51.978;5.656;2024-02-26T09:18:17;7.9;73.0
78438;SHT31;67736;51.978;5.656;2024-02-26T09:20:49;7.9;72.9
78438;SHT31;67736;51.978;5.656;2024-02-26T09:23:19;7.9;72.9
78438;SHT31;67736;51.978;5.656;2024-02-26T09:25:49;7.9;73.5
78438;SHT31;67736;51.978;5.656;2024-02-26T09:28:18;7.9;73.8
78438;SHT31;67736;51.978;5.656;2024-02-26T09:30:50;7.9;73.1
78438;SHT31;67736;51.978;5.656;2024-02-26T09:33:19;7.9;73.4
78438;SHT31;67736;51.978;5.656;2024-02-26T09:35:49;7.9;73.5
78438;SHT31;67736;51.978;5.656;2024-02-26T09:38:18;7.9;73.6
78438;SHT31;67736;51.978;5.656;2024-02-26T09:40:48;7.9;73.8
78438;SHT31;67736;51.978;5.656;2024-02-26T09:43:21;7.9;73.8
78438;SHT31;67736;51.978;5.656;2024-02-26T09:45:54;7.9;74.2
78438;SHT31;67736;51.978;5.656;2024-02-26T09:48:24;7.9;74.0
78438;SHT31;67736;51.978;5.656;2024-02-26T09:50:54;7.9;73.6
78438;SHT31;67736;51.978;5.656;2024-02-26T09:53:27;7.9;73.5
78438;SHT31;67736;51.978;5.656;2024-02-26T09:55:59;7.9;73.5
78438;SHT31;67736;51.978;5.656;2024-02-26T09:58:29;7.9;73.5
78438;SHT31;67736;51.978;5.656;2024-02-26T10:01:02;7.9;73.8
78438;SHT31;67736;51.978;5.656;2024-02-26T10:03:41;7.9;73.7
78438;SHT31;67736;51.978;5.656;2024-02-26T10:06:13;7.9;73.6
78438;SHT31;67736;51.978;5.656;2024-02-26T10:08:43;7.9;73.5
78438;SHT31;67736;51.978;5.656;2024-02-26T10:11:14;7.8;73.6
78438;SHT31;67736;51.978;5.656;2024-02-26T10:13:46;7.8;73.6
78438;SHT31;67736;51.978;5.656;2024-02-26T10:16:16;7.8;73.9
78438;SHT31;67736;51.978;5.656;2024-02-26T10:18:49;7.8;73.9
78438;SHT31;67736;51.978;5.656;2024-02-26T10:21:21;7.8;73.9
78438;SHT31;67736;51.978;5.656;2024-02-26T10:23:50;7.8;74.3
78438;SHT31;67736;51.978;5.656;2024-02-26T10:26:20;7.8;74.1
78438;SHT31;67736;51.978;5.656;2024-02-26T10:28:50;7.8;74.0
78438;SHT31;67736;51.978;5.656;2024-02-26T10:31:20;7.8;74.2
78438;SHT31;67736;51.978;5.656;2024-02-26T10:33:49;7.8;73.9
78438;SHT31;67736;51.978;5.656;2024-02-26T10:36:20;7.8;74.0
78438;SHT31;67736;51.978;5.656;2024-02-26T10:38:49;7.8;73.9
78438;SHT31;67736;51.978;5.656;2024-02-26T10:41:24;7.8;73.8
78438;SHT31;67736;51.978;5.656;2024-02-26T10:43:54;7.8;74.1
78438;SHT31;67736;51.978;5.656;2024-02-26T10:46:25;7.8;74.2
78438;SHT31;67736;51.978;5.656;2024-02-26T10:48:56;7.8;74.1
78438;SHT31;67736;51.978;5.656;2024-02-26T10:51:29;7.8;74.0
78438;SHT31;67736;51.978;5.656;2024-02-26T10:53:59;7.8;74.1
78438;SHT31;67736;51.978;5.656;2024-02-26T10:56:33;7.9;74.3
78438;SHT31;67736;51.978;5.656;2024-02-26T10:59:07;7.9;73.9
78438;SHT31;67736;51.978;5.656;2024-02-26T11:01:41;7.9;74.0
78438;SHT31;67736;51.978;5.656;2024-02-26T11:04:15;7.9;73.9
78438;SHT31;67736;51.978;5.656;2024-02-26T11:06:45;7.9;74.1
78438;SHT31;67736;51.978;5.656;2024-02-26T11:09:16;7.9;74.5
78438;SHT31;67736;51.978;5.656;2024-02-26T11:11:47;7.9;74.4
78438;SHT31;67736;51.978;5.656;2024-02-26T11:14:21;7.9;74.1
78438;SHT31;67736;51.978;5.656;2024-02-26T11:16:54;7.9;74.4
78438;SHT31;67736;51.978;5.656;2024-02-26T11:19:26;7.9;74.5
78438;SHT31;67736;51.978;5.656;2024-02-26T11:21:57;7.9;74.2
78438;SHT31;67736;51.978;5.656;2024-02-26T11:24:28;7.9;74.4
78438;SHT31;67736;51.978;5.656;2024-02-26T11:27:02;8.0;74.2
78438;SHT31;67736;51.978;5.656;2024-02-26T11:29:38;8.0;74.0
78438;SHT31;67736;51.978;5.656;2024-02-26T11:32:09;8.0;74.0
78438;SHT31;67736;51.978;5.656;2024-02-26T11:34:39;8.0;74.1
78438;SHT31;67736;51.978;5.656;2024-02-26T11:37:14;8.0;74.0
78438;SHT31;67736;51.978;5.656;2024-02-26T11:39:46;8.1;74.2
78438;SHT31;67736;51.978;5.656;2024-02-26T11:42:16;8.1;74.0
78438;SHT31;67736;51.978;5.656;2024-02-26T11:44:46;8.1;73.8
78438;SHT31;67736;51.978;5.656;2024-02-26T11:47:19;8.1;73.7
78438;SHT31;67736;51.978;5.656;2024-02-26T11:49:50;8.1;73.7
78438;SHT31;67736;51.978;5.656;2024-02-26T11:52:19;8.1;73.8
78438;SHT31;67736;51.978;5.656;2024-02-26T11:54:50;8.1;73.5
78438;SHT31;67736;51.978;5.656;2024-02-26T11:57:22;8.1;73.4
78438;SHT31;67736;51.978;5.656;2024-02-26T11:59:52;8.1;73.4
78438;SHT31;67736;51.978;5.656;2024-02-26T12:02:41;8.1;73.6
78438;SHT31;67736;51.978;5.656;2024-02-26T12:05:15;8.1;73.7
78438;SHT31;67736;51.978;5.656;2024-02-26T12:07:49;8.1;74.1
78438;SHT31;67736;51.978;5.656;2024-02-26T12:10:31;8.1;73.6
78438;SHT31;67736;51.978;5.656;2024-02-26T12:13:07;8.1;73.7
78438;SHT31;67736;51.978;5.656;2024-02-26T12:15:39;8.1;74.3
78438;SHT31;67736;51.978;5.656;2024-02-26T12:18:10;8.1;74.1
78438;SHT31;67736;51.978;5.656;2024-02-26T12:20:40;8.1;74.0
78438;SHT31;67736;51.978;5.656;2024-02-26T12:23:14;8.1;73.5
78438;SHT31;67736;51.978;5.656;2024-02-26T12:25:44;8.0;74.0
78438;SHT31;67736;51.978;5.656;2024-02-26T12:28:15;8.0;74.5
78438;SHT31;67736;51.978;5.656;2024-02-26T12:30:45;8.1;74.0
78438;SHT31;67736;51.978;5.656;2024-02-26T12:33:17;8.1;73.9
78438;SHT31;67736;51.978;5.656;2024-02-26T12:35:46;8.1;73.8
78438;SHT31;67736;51.978;5.656;2024-02-26T12:38:17;8.1;73.5
78438;SHT31;67736;51.978;5.656;2024-02-26T12:40:47;8.1;73.6
78438;SHT31;67736;51.978;5.656;2024-02-26T12:43:19;8.1;73.6
78438;SHT31;67736;51.978;5.656;2024-02-26T12:45:51;8.1;73.8
78438;SHT31;67736;51.978;5.656;2024-02-26T12:48:21;8.1;73.9
78438;SHT31;67736;51.978;5.656;2024-02-26T12:50:50;8.1;74.1
78438;SHT31;67736;51.978;5.656;2024-02-26T12:53:22;8.1;73.5
78438;SHT31;67736;51.978;5.656;2024-02-26T12:55:52;8.1;73.9
78438;SHT31;67736;51.978;5.656;2024-02-26T12:58:22;8.1;73.7
78438;SHT31;67736;51.978;5.656;2024-02-26T13:00:53;8.1;73.1
78438;SHT31;67736;51.978;5.656;2024-02-26T13:03:27;8.1;73.6
78438;SHT31;67736;51.978;5.656;2024-02-26T13:05:58;8.2;73.5
78438;SHT31;67736;51.978;5.656;2024-02-26T13:08:28;8.2;73.9
78438;SHT31;67736;51.978;5.656;2024-02-26T13:10:58;8.2;73.7
78438;SHT31;67736;51.978;5.656;2024-02-26T13:13:29;8.2;73.2
78438;SHT31;67736;51.978;5.656;2024-02-26T13:16:06;8.2;73.6
78438;SHT31;67736;51.978;5.656;2024-02-26T13:18:36;8.3;73.5
78438;SHT31;67736;51.978;5.656;2024-02-26T13:21:10;8.3;73.6
78438;SHT31;67736;51.978;5.656;2024-02-26T13:23:41;8.3;73.0
78438;SHT31;67736;51.978;5.656;2024-02-26T13:26:13;8.3;73.1
78438;SHT31;67736;51.978;5.656;2024-02-26T13:28:43;8.3;72.9
78438;SHT31;67736;51.978;5.656;2024-02-26T13:31:13;8.3;73.2
78438;SHT31;67736;51.978;5.656;2024-02-26T13:33:46;8.3;73.2
78438;SHT31;67736;51.978;5.656;2024-02-26T13:36:17;8.4;73.4
78438;SHT31;67736;51.978;5.656;2024-02-26T13:38:53;8.4;73.2
78438;SHT31;67736;51.978;5.656;2024-02-26T13:41:23;8.4;72.9
78438;SHT31;67736;51.978;5.656;2024-02-26T13:43:55;8.4;72.5
78438;SHT31;67736;51.978;5.656;2024-02-26T13:46:25;8.4;72.8
78438;SHT31;67736;51.978;5.656;2024-02-26T13:48:58;8.4;72.2
78438;SHT31;67736;51.978;5.656;2024-02-26T13:51:27;8.4;72.7
78438;SHT31;67736;51.978;5.656;2024-02-26T13:54:02;8.4;72.9
78438;SHT31;67736;51.978;5.656;2024-02-26T13:56:32;8.4;72.5
78438;SHT31;67736;51.978;5.656;2024-02-26T13:59:02;8.5;72.1
78438;SHT31;67736;51.978;5.656;2024-02-26T14:01:32;8.5;72.8
78438;SHT31;67736;51.978;5.656;2024-02-26T14:04:03;8.5;72.3
78438;SHT31;67736;51.978;5.656;2024-02-26T14:06:33;8.5;71.8
78438;SHT31;67736;51.978;5.656;2024-02-26T14:09:02;8.5;71.7
78438;SHT31;67736;51.978;5.656;2024-02-26T14:11:33;8.5;72.1
78438;SHT31;67736;51.978;5.656;2024-02-26T14:14:03;8.5;71.5
78438;SHT31;67736;51.978;5.656;2024-02-26T14:16:34;8.5;71.9
78438;SHT31;67736;51.978;5.656;2024-02-26T14:19:04;8.5;71.9
78438;SHT31;67736;51.978;5.656;2024-02-26T14:21:33;8.5;71.7
78438;SHT31;67736;51.978;5.656;2024-02-26T14:24:03;8.5;71.8
78438;SHT31;67736;51.978;5.656;2024-02-26T14:26:33;8.5;72.0
78438;SHT31;67736;51.978;5.656;2024-02-26T14:29:03;8.5;72.2
78438;SHT31;67736;51.978;5.656;2024-02-26T14:31:32;8.5;71.6
78438;SHT31;67736;51.978;5.656;2024-02-26T14:34:02;8.5;71.5
78438;SHT31;67736;51.978;5.656;2024-02-26T14:36:32;8.5;71.7
78438;SHT31;67736;51.978;5.656;2024-02-26T14:39:01;8.5;71.9
78438;SHT31;67736;51.978;5.656;2024-02-26T14:41:31;8.5;72.0
78438;SHT31;67736;51.978;5.656;2024-02-26T14:44:01;8.5;71.3
78438;SHT31;67736;51.978;5.656;2024-02-26T14:46:30;8.5;71.4
78438;SHT31;67736;51.978;5.656;2024-02-26T14:49:00;8.6;71.5
78438;SHT31;67736;51.978;5.656;2024-02-26T14:51:29;8.6;71.4
78438;SHT31;67736;51.978;5.656;2024-02-26T14:53:59;8.6;70.8
78438;SHT31;67736;51.978;5.656;2024-02-26T14:56:30;8.6;71.2
78438;SHT31;67736;51.978;5.656;2024-02-26T14:59:01;8.6;70.8
78438;SHT31;67736;51.978;5.656;2024-02-26T15:01:33;8.7;70.4
78438;SHT31;67736;51.978;5.656;2024-02-26T15:04:03;8.7;70.5
78438;SHT31;67736;51.978;5.656;2024-02-26T15:06:32;8.7;70.6
78438;SHT31;67736;51.978;5.656;2024-02-26T15:09:02;8.7;69.9
78438;SHT31;67736;51.978;5.656;2024-02-26T15:11:33;8.8;68.9
78438;SHT31;67736;51.978;5.656;2024-02-26T15:14:02;8.8;68.8
78438;SHT31;67736;51.978;5.656;2024-02-26T15:16:32;8.7;69.3
78438;SHT31;67736;51.978;5.656;2024-02-26T15:19:02;8.7;69.1
78438;SHT31;67736;51.978;5.656;2024-02-26T15:21:31;8.7;68.9
78438;SHT31;67736;51.978;5.656;2024-02-26T15:24:01;8.7;68.3
78438;SHT31;67736;51.978;5.656;2024-02-26T15:26:31;8.7;68.8
78438;SHT31;67736;51.978;5.656;2024-02-26T15:29:01;8.8;68.4
78438;SHT31;67736;51.978;5.656;2024-02-26T15:31:31;8.7;68.4
78438;SHT31;67736;51.978;5.656;2024-02-26T15:34:00;8.7;69.6
78438;SHT31;67736;51.978;5.656;2024-02-26T15:36:30;8.8;69.2
78438;SHT31;67736;51.978;5.656;2024-02-26T15:39:02;8.8;68.7
78438;SHT31;67736;51.978;5.656;2024-02-26T15:41:34;8.8;68.3
78438;SHT31;67736;51.978;5.656;2024-02-26T15:44:04;8.8;68.1
78438;SHT31;67736;51.978;5.656;2024-02-26T15:46:38;8.8;67.8
78438;SHT31;67736;51.978;5.656;2024-02-26T15:49:08;8.7;68.3
78438;SHT31;67736;51.978;5.656;2024-02-26T15:51:40;8.7;68.5
78438;SHT31;67736;51.978;5.656;2024-02-26T15:54:10;8.7;68.7
78438;SHT31;67736;51.978;5.656;2024-02-26T15:56:40;8.7;68.9
78438;SHT31;67736;51.978;5.656;2024-02-26T15:59:10;8.7;68.7
78438;SHT31;67736;51.978;5.656;2024-02-26T16:01:40;8.7;68.8
78438;SHT31;67736;51.978;5.656;2024-02-26T16:04:10;8.7;68.2
78438;SHT31;67736;51.978;5.656;2024-02-26T16:06:43;8.7;67.8
78438;SHT31;67736;51.978;5.656;2024-02-26T16:09:13;8.7;67.8
78438;SHT31;67736;51.978;5.656;2024-02-26T16:11:42;8.7;68.0
78438;SHT31;67736;51.978;5.656;2024-02-26T16:14:36;8.7;68.1
78438;SHT31;67736;51.978;5.656;2024-02-26T16:17:01;8.7;67.9
78438;SHT31;67736;51.978;5.656;2024-02-26T16:19:32;8.7;67.6
78438;SHT31;67736;51.978;5.656;2024-02-26T16:22:03;8.7;67.7
78438;SHT31;67736;51.978;5.656;2024-02-26T16:24:33;8.6;67.8
78438;SHT31;67736;51.978;5.656;2024-02-26T16:27:03;8.6;67.9
78438;SHT31;67736;51.978;5.656;2024-02-26T16:29:32;8.6;67.9
78438;SHT31;67736;51.978;5.656;2024-02-26T16:32:03;8.6;68.1
78438;SHT31;67736;51.978;5.656;2024-02-26T16:34:33;8.6;68.2
78438;SHT31;67736;51.978;5.656;2024-02-26T16:37:09;8.6;68.1